createdAt,value
2017-09-03T00:02:18.586Z,11.30
2017-09-03T00:04:46.098Z,11.30
2017-09-03T00:07:13.718Z,11.30
2017-09-03T00:09:41.290Z,11.20
2017-09-03T00:12:08.816Z,11.20
2017-09-03T00:14:36.343Z,11.20
2017-09-03T00:17:03.881Z,11.10
2017-09-03T00:19:31.515Z,11.10
2017-09-03T00:21:59.060Z,11.10
2017-09-03T00:24:27.343Z,11.10
2017-09-03T00:26:54.907Z,11.10
2017-09-03T00:29:22.428Z,11.10
2017-09-03T00:31:50.858Z,11.10
2017-09-03T00:34:18.434Z,11.10
2017-09-03T00:36:45.970Z,11.00
2017-09-03T00:39:13.502Z,10.90
2017-09-03T00:41:41.053Z,10.90
2017-09-03T00:44:08.580Z,10.90
2017-09-03T00:46:36.121Z,10.80
2017-09-03T00:49:03.677Z,10.80
2017-09-03T00:51:31.208Z,10.80
2017-09-03T00:53:58.764Z,10.80
2017-09-03T00:56:26.340Z,10.90
2017-09-03T00:58:53.880Z,11.00
2017-09-03T01:01:21.398Z,11.10
2017-09-03T01:03:48.929Z,11.20
2017-09-03T01:06:16.461Z,11.20
2017-09-03T01:08:43.976Z,11.30
2017-09-03T01:11:11.515Z,11.30
2017-09-03T01:13:39.077Z,11.30
2017-09-03T01:16:06.620Z,11.20
2017-09-03T01:18:34.148Z,11.20
2017-09-03T01:21:01.706Z,11.20
2017-09-03T01:23:29.247Z,11.10
2017-09-03T01:25:56.781Z,11.10
2017-09-03T01:28:24.549Z,11.00
2017-09-03T01:30:52.104Z,10.90
2017-09-03T01:33:19.655Z,10.90
2017-09-03T01:35:47.741Z,10.90
2017-09-03T01:38:15.237Z,10.80
2017-09-03T01:40:43.294Z,10.80
2017-09-03T01:43:10.831Z,10.80
2017-09-03T01:45:38.366Z,10.80
2017-09-03T01:48:09.037Z,10.90
2017-09-03T01:50:37.193Z,10.90
2017-09-03T01:53:05.627Z,10.90
2017-09-03T01:55:33.147Z,11.00
2017-09-03T01:58:00.723Z,11.10
2017-09-03T02:00:28.288Z,11.20
2017-09-03T02:02:55.815Z,11.30
2017-09-03T02:05:23.356Z,11.30
2017-09-03T02:07:50.901Z,11.40
2017-09-03T02:10:18.438Z,11.40
2017-09-03T02:12:45.980Z,11.40
2017-09-03T02:15:13.543Z,11.40
2017-09-03T02:17:41.097Z,11.50
2017-09-03T02:20:08.786Z,11.50
2017-09-03T02:22:36.849Z,11.50
2017-09-03T02:25:04.333Z,11.50
2017-09-03T02:27:31.891Z,11.50
2017-09-03T02:29:59.449Z,11.40
2017-09-03T02:32:26.995Z,11.40
2017-09-03T02:34:54.562Z,11.40
2017-09-03T02:37:22.105Z,11.40
2017-09-03T02:39:49.645Z,11.40
2017-09-03T02:42:17.198Z,11.40
2017-09-03T02:44:44.741Z,11.40
2017-09-03T02:47:12.286Z,11.40
2017-09-03T02:49:39.847Z,11.30
2017-09-03T02:52:07.372Z,11.30
2017-09-03T02:54:34.902Z,11.30
2017-09-03T02:57:02.450Z,11.30
2017-09-03T02:59:29.971Z,11.40
2017-09-03T03:01:57.497Z,11.50
2017-09-03T03:04:25.049Z,11.50
2017-09-03T03:06:52.598Z,11.60
2017-09-03T03:09:20.170Z,11.60
2017-09-03T03:11:47.699Z,11.60
2017-09-03T03:14:15.219Z,11.60
2017-09-03T03:16:42.769Z,11.60
2017-09-03T03:19:10.302Z,11.70
2017-09-03T03:21:37.829Z,11.70
2017-09-03T03:24:05.394Z,11.70
2017-09-03T03:26:32.996Z,11.70
2017-09-03T03:29:00.532Z,11.70
2017-09-03T03:31:28.035Z,11.70
2017-09-03T03:33:55.603Z,11.70
2017-09-03T03:36:23.339Z,11.70
2017-09-03T03:38:50.869Z,11.60
2017-09-03T03:41:18.404Z,11.60
2017-09-03T03:43:45.955Z,11.70
2017-09-03T03:46:13.492Z,11.60
2017-09-03T03:48:41.021Z,11.70
2017-09-03T03:51:08.553Z,11.70
2017-09-03T03:53:36.040Z,11.60
2017-09-03T03:56:03.585Z,11.70
2017-09-03T03:58:31.126Z,11.70
2017-09-03T04:00:58.673Z,11.60
2017-09-03T04:03:26.394Z,11.70
2017-09-03T04:05:53.937Z,11.60
2017-09-03T04:08:21.464Z,11.60
2017-09-03T04:10:48.993Z,11.60
2017-09-03T04:13:16.657Z,11.50
2017-09-03T04:15:44.212Z,11.50
2017-09-03T04:18:11.807Z,11.50
2017-09-03T04:20:39.364Z,11.50
2017-09-03T04:23:06.930Z,11.50
2017-09-03T04:25:34.445Z,11.40
2017-09-03T04:28:02.010Z,11.40
2017-09-03T04:30:29.549Z,11.40
2017-09-03T04:32:57.077Z,11.40
2017-09-03T04:35:24.616Z,11.40
2017-09-03T04:37:52.153Z,11.40
2017-09-03T04:40:19.693Z,11.50
2017-09-03T04:42:47.248Z,11.50
2017-09-03T04:45:14.791Z,11.60
2017-09-03T04:47:42.337Z,11.60
2017-09-03T04:50:09.886Z,11.60
2017-09-03T04:52:37.421Z,11.60
2017-09-03T04:55:04.956Z,11.70
2017-09-03T04:57:32.489Z,11.70
2017-09-03T05:00:00.026Z,11.80
2017-09-03T05:02:27.557Z,11.80
2017-09-03T05:04:55.080Z,11.90
2017-09-03T05:07:22.641Z,11.90
2017-09-03T05:09:50.181Z,12.00
2017-09-03T05:12:17.722Z,12.10
2017-09-03T05:14:45.256Z,12.20
2017-09-03T05:17:12.813Z,12.20
2017-09-03T05:19:40.397Z,12.30
2017-09-03T05:22:07.919Z,12.30
2017-09-03T05:24:35.467Z,12.50
2017-09-03T05:27:03.022Z,12.50
2017-09-03T05:29:30.564Z,12.60
2017-09-03T05:31:58.048Z,12.60
2017-09-03T05:34:25.610Z,12.60
2017-09-03T05:36:53.161Z,12.60
2017-09-03T05:39:20.949Z,12.60
2017-09-03T05:41:48.483Z,12.60
2017-09-03T05:44:16.035Z,12.70
2017-09-03T05:46:43.525Z,12.70
2017-09-03T05:49:11.115Z,12.70
2017-09-03T05:51:38.967Z,12.70
2017-09-03T05:54:06.970Z,12.60
2017-09-03T05:56:34.533Z,12.50
2017-09-03T05:59:02.075Z,12.60
2017-09-03T06:01:29.653Z,12.60
2017-09-03T06:03:57.191Z,12.70
2017-09-03T06:06:24.733Z,12.80
2017-09-03T06:08:52.293Z,12.80
2017-09-03T06:11:19.861Z,12.80
2017-09-03T06:13:47.425Z,12.90
2017-09-03T06:16:15.005Z,12.90
2017-09-03T06:18:42.559Z,12.90
2017-09-03T06:21:10.081Z,12.70
2017-09-03T06:23:37.669Z,12.60
2017-09-03T06:26:05.409Z,12.50
2017-09-03T06:28:32.956Z,12.40
2017-09-03T06:31:00.522Z,12.40
2017-09-03T06:33:28.064Z,12.30
2017-09-03T06:35:55.616Z,12.40
2017-09-03T06:38:23.114Z,12.40
2017-09-03T06:40:50.694Z,12.40
2017-09-03T06:43:18.258Z,12.40
2017-09-03T06:45:45.850Z,12.50
2017-09-03T06:48:13.425Z,12.50
2017-09-03T06:50:40.945Z,12.80
2017-09-03T06:53:08.470Z,12.90
2017-09-03T06:55:36.038Z,13.10
2017-09-03T06:58:03.615Z,13.30
2017-09-03T07:00:31.216Z,13.40
2017-09-03T07:02:58.833Z,13.60
2017-09-03T07:05:26.440Z,13.80
2017-09-03T07:07:54.063Z,14.00
2017-09-03T07:10:21.636Z,14.10
2017-09-03T07:12:49.213Z,14.20
2017-09-03T07:15:16.825Z,14.40
2017-09-03T07:17:44.359Z,14.70
2017-09-03T07:20:11.868Z,15.00
2017-09-03T07:22:39.445Z,14.90
2017-09-03T07:25:07.028Z,15.20
2017-09-03T07:27:34.576Z,15.20
2017-09-03T07:30:02.160Z,15.10
2017-09-03T07:32:29.718Z,15.40
2017-09-03T07:34:57.291Z,15.50
2017-09-03T07:37:24.862Z,15.50
2017-09-03T07:39:52.422Z,15.50
2017-09-03T07:42:20.048Z,15.40
2017-09-03T07:44:47.568Z,15.30
2017-09-03T07:47:15.168Z,15.50
2017-09-03T07:49:42.768Z,15.70
2017-09-03T07:52:10.331Z,15.90
2017-09-03T07:54:37.926Z,15.90
2017-09-03T07:57:05.533Z,16.00
2017-09-03T07:59:33.141Z,16.20
2017-09-03T08:02:00.726Z,15.90
2017-09-03T08:04:29.111Z,16.00
2017-09-03T08:06:56.866Z,16.10
2017-09-03T08:09:24.457Z,15.90
2017-09-03T08:11:52.025Z,15.80
2017-09-03T08:14:19.625Z,15.70
2017-09-03T08:16:47.305Z,15.80
2017-09-03T08:19:16.268Z,15.70
2017-09-03T08:21:43.937Z,15.70
2017-09-03T08:24:11.530Z,15.70
2017-09-03T08:26:39.201Z,15.40
2017-09-03T08:29:06.789Z,15.20
2017-09-03T08:31:35.084Z,15.10
2017-09-03T08:34:02.692Z,15.30
2017-09-03T08:36:30.368Z,15.90
2017-09-03T08:38:58.004Z,16.10
2017-09-03T08:41:25.652Z,16.60
2017-09-03T08:43:53.440Z,16.80
2017-09-03T08:46:21.045Z,16.80
2017-09-03T08:48:48.643Z,16.50
2017-09-03T08:51:16.220Z,16.70
2017-09-03T08:53:43.783Z,16.50
2017-09-03T08:56:11.365Z,16.40
2017-09-03T08:58:39.012Z,16.20
2017-09-03T09:01:06.790Z,15.90
2017-09-03T09:03:34.494Z,15.70
2017-09-03T09:06:02.276Z,15.30
2017-09-03T09:08:30.821Z,15.50
2017-09-03T09:10:58.398Z,15.80
2017-09-03T09:13:25.977Z,16.10
2017-09-03T09:15:54.524Z,16.50
2017-09-03T09:18:22.535Z,16.60
2017-09-03T09:20:50.084Z,16.60
2017-09-03T09:23:17.697Z,16.50
2017-09-03T09:25:45.353Z,16.60
2017-09-03T09:28:13.014Z,17.00
2017-09-03T09:30:40.591Z,17.00
2017-09-03T09:33:08.241Z,17.30
2017-09-03T09:35:35.826Z,17.30
2017-09-03T09:38:04.329Z,17.80
2017-09-03T09:40:31.900Z,18.10
2017-09-03T09:42:59.592Z,18.20
2017-09-03T09:45:27.184Z,18.10
2017-09-03T09:47:54.832Z,18.20
2017-09-03T09:50:25.385Z,18.20
2017-09-03T09:52:53.151Z,18.00
2017-09-03T09:55:21.639Z,18.30
2017-09-03T09:57:49.352Z,17.80
2017-09-03T10:00:17.012Z,17.60
2017-09-03T10:02:46.713Z,17.70
2017-09-03T10:05:14.281Z,18.00
2017-09-03T10:07:42.801Z,18.50
2017-09-03T10:10:10.473Z,19.20
2017-09-03T10:12:38.104Z,19.40
2017-09-03T10:15:05.743Z,19.30
2017-09-03T10:17:33.353Z,19.70
2017-09-03T10:20:01.780Z,19.60
2017-09-03T10:22:29.504Z,19.80
2017-09-03T10:24:58.031Z,20.00
2017-09-03T10:27:25.665Z,20.00
2017-09-03T10:29:54.955Z,20.40
2017-09-03T10:32:22.596Z,21.00
2017-09-03T10:34:50.205Z,20.90
2017-09-03T10:37:17.959Z,20.30
2017-09-03T10:39:46.073Z,20.00
2017-09-03T10:42:13.847Z,19.40
2017-09-03T10:44:42.616Z,18.20
2017-09-03T10:47:10.214Z,18.00
2017-09-03T10:49:38.193Z,17.70
2017-09-03T10:52:06.100Z,17.60
2017-09-03T10:54:33.733Z,17.30
2017-09-03T10:57:01.452Z,16.90
2017-09-03T10:59:29.113Z,16.80
2017-09-03T11:01:56.748Z,16.50
2017-09-03T11:04:25.729Z,16.20
2017-09-03T11:06:53.628Z,16.00
2017-09-03T11:09:21.706Z,15.70
2017-09-03T11:11:50.091Z,15.50
2017-09-03T11:14:19.161Z,15.50
2017-09-03T11:16:46.841Z,15.60
2017-09-03T11:19:15.151Z,15.70
2017-09-03T11:21:45.544Z,15.90
2017-09-03T11:24:13.955Z,16.20
2017-09-03T11:26:41.553Z,16.60
2017-09-03T11:29:09.932Z,17.30
2017-09-03T11:31:37.701Z,17.30
2017-09-03T11:34:05.637Z,17.70
2017-09-03T11:36:33.276Z,17.90
2017-09-03T11:39:00.879Z,18.20
2017-09-03T11:41:28.586Z,18.20
2017-09-03T11:43:56.213Z,18.20
2017-09-03T11:46:23.803Z,18.30
2017-09-03T11:48:51.427Z,18.40
2017-09-03T11:51:19.091Z,18.70
2017-09-03T11:53:47.597Z,18.30
2017-09-03T11:56:15.252Z,18.40
2017-09-03T11:58:42.879Z,18.50
2017-09-03T12:01:10.512Z,19.00
2017-09-03T12:03:38.160Z,19.20
2017-09-03T12:06:05.773Z,19.10
2017-09-03T12:08:34.174Z,19.10
2017-09-03T12:11:02.644Z,19.20
2017-09-03T12:13:30.269Z,19.00
2017-09-03T12:15:57.894Z,19.10
2017-09-03T12:18:25.519Z,19.20
2017-09-03T12:20:53.137Z,19.40
2017-09-03T12:23:20.719Z,19.60
2017-09-03T12:25:48.358Z,19.50
2017-09-03T12:28:16.005Z,19.50
2017-09-03T12:30:43.662Z,19.70
2017-09-03T12:33:11.489Z,19.60
2017-09-03T12:35:39.145Z,19.50
2017-09-03T12:38:06.768Z,19.40
2017-09-03T12:40:34.411Z,19.40
2017-09-03T12:43:02.068Z,19.40
2017-09-03T12:45:30.597Z,19.70
2017-09-03T12:47:58.593Z,19.10
2017-09-03T12:50:26.226Z,19.10
2017-09-03T12:52:54.673Z,19.10
2017-09-03T12:55:22.281Z,19.00
2017-09-03T12:57:50.657Z,18.80
2017-09-03T13:00:19.107Z,18.70
2017-09-03T13:02:46.713Z,18.90
2017-09-03T13:05:14.271Z,19.00
2017-09-03T13:07:42.616Z,19.60
2017-09-03T13:10:11.124Z,19.60
2017-09-03T13:15:31.459Z,20.30
2017-09-03T13:17:59.860Z,20.30
2017-09-03T13:20:27.692Z,19.80
2017-09-03T13:22:55.305Z,19.90
2017-09-03T13:25:23.884Z,20.00
2017-09-03T13:27:51.548Z,20.20
2017-09-03T13:30:19.132Z,20.10
2017-09-03T13:32:46.666Z,19.90
2017-09-03T13:35:14.262Z,19.70
2017-09-03T13:37:41.865Z,19.40
2017-09-03T13:40:09.450Z,19.10
2017-09-03T13:42:37.076Z,18.90
2017-09-03T13:45:05.184Z,18.20
2017-09-03T13:47:32.864Z,17.70
2017-09-03T13:50:01.023Z,17.20
2017-09-03T13:52:28.636Z,16.80
2017-09-03T13:54:56.275Z,16.70
2017-09-03T13:57:23.996Z,16.70
2017-09-03T13:59:51.659Z,16.90
2017-09-03T14:02:19.326Z,17.00
2017-09-03T14:04:46.911Z,17.00
2017-09-03T14:07:14.537Z,17.10
2017-09-03T14:09:42.149Z,17.10
2017-09-03T14:12:09.727Z,17.10
2017-09-03T14:14:37.345Z,17.30
2017-09-03T14:17:04.900Z,17.60
2017-09-03T14:19:33.071Z,17.50
2017-09-03T14:22:00.632Z,17.40
2017-09-03T14:24:28.240Z,17.60
2017-09-03T14:26:55.828Z,17.60
2017-09-03T14:29:23.407Z,17.60
2017-09-03T14:31:51.014Z,17.60
2017-09-03T14:34:19.369Z,17.60
2017-09-03T14:36:46.969Z,17.60
2017-09-03T14:39:14.505Z,17.80
2017-09-03T14:41:42.058Z,17.60
2017-09-03T14:44:09.621Z,17.50
2017-09-03T14:46:37.144Z,17.40
2017-09-03T14:49:04.803Z,17.30
2017-09-03T14:51:32.391Z,17.20
2017-09-03T14:53:59.969Z,17.30
2017-09-03T14:56:27.533Z,17.30
2017-09-03T14:58:55.097Z,17.20
2017-09-03T15:01:22.665Z,17.10
2017-09-03T15:03:50.243Z,17.10
2017-09-03T15:06:17.864Z,17.10
2017-09-03T15:08:45.444Z,16.70
2017-09-03T15:11:13.972Z,16.50
2017-09-03T15:13:42.262Z,16.50
2017-09-03T15:16:09.881Z,16.60
2017-09-03T15:18:37.535Z,16.60
2017-09-03T15:21:05.108Z,16.60
2017-09-03T15:23:32.719Z,16.80
2017-09-03T15:26:00.327Z,17.00
2017-09-03T15:28:27.878Z,17.20
2017-09-03T15:30:55.468Z,17.40
2017-09-03T15:33:23.054Z,17.50
2017-09-03T15:35:50.563Z,17.60
2017-09-03T15:38:18.125Z,17.80
2017-09-03T15:40:46.347Z,17.90
2017-09-03T15:43:13.923Z,18.10
2017-09-03T15:45:41.501Z,18.10
2017-09-03T15:48:09.084Z,18.10
2017-09-03T15:50:37.379Z,18.00
2017-09-03T15:53:04.927Z,17.90
2017-09-03T15:55:32.463Z,17.70
2017-09-03T15:58:00.109Z,17.40
2017-09-03T16:00:27.628Z,17.30
2017-09-03T16:02:55.253Z,17.20
2017-09-03T16:05:22.840Z,17.20
2017-09-03T16:07:50.378Z,17.10
2017-09-03T16:10:17.945Z,16.90
2017-09-03T16:12:45.578Z,16.80
2017-09-03T16:15:13.146Z,16.60
2017-09-03T16:17:40.734Z,16.60
2017-09-03T16:20:08.362Z,16.40
2017-09-03T16:22:36.945Z,16.20
2017-09-03T16:25:04.604Z,16.00
2017-09-03T16:27:32.218Z,15.90
2017-09-03T16:29:59.768Z,15.80
2017-09-03T16:32:27.325Z,15.70
2017-09-03T16:34:54.922Z,15.60
2017-09-03T16:37:22.464Z,15.50
2017-09-03T16:39:50.035Z,15.50
2017-09-03T16:42:17.630Z,15.40
2017-09-03T16:44:45.236Z,15.40
2017-09-03T16:47:12.842Z,15.30
2017-09-03T16:49:40.412Z,15.20
2017-09-03T16:52:07.990Z,15.10
2017-09-03T16:54:35.571Z,15.00
2017-09-03T16:57:03.117Z,14.90
2017-09-03T16:59:30.673Z,14.80
2017-09-03T17:01:59.017Z,14.70
2017-09-03T17:04:26.596Z,14.60
2017-09-03T17:06:54.199Z,14.50
2017-09-03T17:09:21.799Z,14.50
2017-09-03T17:11:49.356Z,14.30
2017-09-03T17:14:16.924Z,14.20
2017-09-03T17:16:45.342Z,13.90
2017-09-03T17:19:13.023Z,13.80
2017-09-03T17:21:40.614Z,13.80
2017-09-03T17:24:08.259Z,13.60
2017-09-03T17:26:35.791Z,13.50
2017-09-03T17:29:03.420Z,13.40
2017-09-03T17:31:31.574Z,13.30
2017-09-03T17:33:59.695Z,13.20
2017-09-03T17:36:38.119Z,13.10
2017-09-03T17:39:05.724Z,13.10
2017-09-03T17:41:33.327Z,13.00
2017-09-03T17:44:10.952Z,12.90
2017-09-03T17:46:38.595Z,12.80
2017-09-03T17:49:06.180Z,12.70
2017-09-03T17:51:34.305Z,12.60
2017-09-03T17:54:02.192Z,12.50
2017-09-03T17:56:29.727Z,12.40
2017-09-03T17:58:57.411Z,12.30
2017-09-03T18:01:25.824Z,12.20
2017-09-03T18:03:54.144Z,12.10
2017-09-03T18:06:22.486Z,12.00
2017-09-03T18:08:50.096Z,12.00
2017-09-03T18:11:18.635Z,11.90
2017-09-03T18:13:47.655Z,11.90
2017-09-03T18:16:15.988Z,11.90
2017-09-03T18:18:43.600Z,11.80
2017-09-03T18:26:56.112Z,11.70
2017-09-03T18:29:29.200Z,11.70
2017-09-03T18:31:57.588Z,11.70
2017-09-03T18:34:25.184Z,11.70
2017-09-03T18:40:02.836Z,11.70
2017-09-03T18:42:48.316Z,11.70
2017-09-03T18:45:17.837Z,11.70
2017-09-03T18:47:46.936Z,11.60
2017-09-03T18:50:15.750Z,11.60
2017-09-03T18:52:45.908Z,11.60
2017-09-03T18:55:13.556Z,11.60
2017-09-03T18:57:57.126Z,11.50
2017-09-03T19:00:25.268Z,11.40
2017-09-03T19:02:55.142Z,11.40
2017-09-03T19:05:22.756Z,11.30
2017-09-03T19:07:50.470Z,11.20
2017-09-03T19:10:18.102Z,11.20
2017-09-03T19:12:45.631Z,11.10
2017-09-03T19:15:13.352Z,11.10
2017-09-03T19:17:40.996Z,11.00
2017-09-03T19:20:08.611Z,11.00
2017-09-03T19:22:36.302Z,11.00
2017-09-03T19:25:03.892Z,10.90
2017-09-03T19:27:32.051Z,10.90
2017-09-03T19:29:59.647Z,10.80
2017-09-03T19:32:28.187Z,10.80
2017-09-03T19:34:56.772Z,10.80
2017-09-03T19:37:26.995Z,10.70
2017-09-03T19:39:54.611Z,10.70
2017-09-03T19:42:22.995Z,10.60
2017-09-03T19:44:50.563Z,10.60
2017-09-03T19:47:19.184Z,10.60
2017-09-03T19:49:46.853Z,10.50
2017-09-03T19:52:14.459Z,10.50
2017-09-03T19:54:42.147Z,10.50
2017-09-03T19:57:09.716Z,10.50
2017-09-03T19:59:37.631Z,10.50
2017-09-03T20:02:05.213Z,10.50
2017-09-03T20:04:32.938Z,10.50
2017-09-03T20:07:00.578Z,10.50
2017-09-03T20:09:28.154Z,10.50
2017-09-03T20:11:55.709Z,10.50
2017-09-03T20:14:23.315Z,10.50
2017-09-03T20:16:50.912Z,10.40
2017-09-03T20:19:18.611Z,10.30
2017-09-03T20:21:46.231Z,10.20
2017-09-03T20:24:13.814Z,10.20
2017-09-03T20:26:45.534Z,10.10
2017-09-03T20:29:14.014Z,10.00
2017-09-03T20:31:42.399Z,10.00
2017-09-03T20:34:09.969Z,9.90
2017-09-03T20:36:38.179Z,9.80
2017-09-03T20:39:05.800Z,9.80
2017-09-03T20:41:33.920Z,9.80
2017-09-03T20:44:01.567Z,9.90
2017-09-03T20:46:29.111Z,9.80
2017-09-03T20:48:57.368Z,9.80
2017-09-03T20:51:25.154Z,9.80
2017-09-03T20:53:52.864Z,9.80
2017-09-03T20:56:20.627Z,9.70
2017-09-03T20:58:48.384Z,9.70
2017-09-03T21:01:16.120Z,9.70
2017-09-03T21:03:43.694Z,9.70
2017-09-03T21:06:11.279Z,9.70
2017-09-03T21:08:38.834Z,9.70
2017-09-03T21:11:06.332Z,9.60
2017-09-03T21:13:33.876Z,9.60
2017-09-03T21:16:01.465Z,9.50
2017-09-03T21:18:29.038Z,9.50
2017-09-03T21:20:56.607Z,9.50
2017-09-03T21:23:24.188Z,9.50
2017-09-03T21:25:51.751Z,9.50
2017-09-03T21:28:19.267Z,9.50
2017-09-03T21:30:46.818Z,9.50
2017-09-03T21:33:14.391Z,9.50
2017-09-03T21:35:41.949Z,9.50
2017-09-03T21:38:09.526Z,9.40
2017-09-03T21:40:37.092Z,9.30
2017-09-03T21:43:04.659Z,9.30
2017-09-03T21:45:32.195Z,9.20
2017-09-03T21:47:59.786Z,9.20
2017-09-03T21:50:27.349Z,9.10
2017-09-03T21:52:54.919Z,9.10
2017-09-03T21:55:22.527Z,9.10
2017-09-03T21:57:50.070Z,9.00
2017-09-03T22:00:17.631Z,9.00
2017-09-03T22:02:45.146Z,9.00
2017-09-03T22:05:12.662Z,9.00
2017-09-03T22:07:40.189Z,9.00
2017-09-03T22:10:07.696Z,9.00
2017-09-03T22:12:35.261Z,9.00
2017-09-03T22:15:02.752Z,9.00
2017-09-03T22:17:30.369Z,8.90
2017-09-03T22:19:57.895Z,8.90
2017-09-03T22:22:25.480Z,9.00
2017-09-03T22:24:53.122Z,9.00
2017-09-03T22:27:20.737Z,9.00
2017-09-03T22:29:48.315Z,9.10
2017-09-03T22:32:15.973Z,9.20
2017-09-03T22:34:43.580Z,9.20
2017-09-03T22:37:11.159Z,9.20
2017-09-03T22:39:38.823Z,9.30
2017-09-03T22:42:06.382Z,9.30
2017-09-03T22:44:33.993Z,9.40
2017-09-03T22:47:01.559Z,9.40
2017-09-03T22:49:29.102Z,9.50
2017-09-03T22:51:56.614Z,9.40
2017-09-03T22:54:24.175Z,9.40
2017-09-03T22:56:51.737Z,9.50
2017-09-03T22:59:19.292Z,9.50
2017-09-03T23:01:46.787Z,9.60
2017-09-03T23:04:14.313Z,9.60
2017-09-03T23:06:41.877Z,9.70
2017-09-03T23:09:09.441Z,9.70
2017-09-03T23:11:36.938Z,9.70
2017-09-03T23:14:04.539Z,9.70
2017-09-03T23:16:32.121Z,9.70
2017-09-03T23:18:59.667Z,9.70
2017-09-03T23:21:27.235Z,9.70
2017-09-03T23:23:54.801Z,9.80
2017-09-03T23:26:22.332Z,9.70
2017-09-03T23:28:49.898Z,9.60
2017-09-03T23:31:17.399Z,9.60
2017-09-03T23:33:44.958Z,9.60
2017-09-03T23:36:12.451Z,9.60
2017-09-03T23:38:39.999Z,9.70
2017-09-03T23:41:07.518Z,9.80
2017-09-03T23:43:35.014Z,9.80
2017-09-03T23:46:02.567Z,9.80
2017-09-03T23:48:30.124Z,9.90
2017-09-03T23:50:57.698Z,9.90
2017-09-03T23:53:25.305Z,10.00
2017-09-03T23:55:52.807Z,10.00
2017-09-03T23:58:20.358Z,9.90
